createdAt,value
2018-04-26T00:01:02.043Z,5.77
2018-04-26T00:03:31.033Z,5.60
2018-04-26T00:06:00.180Z,5.57
2018-04-26T00:08:28.231Z,6.10
2018-04-26T00:10:56.628Z,5.43
2018-04-26T00:13:25.615Z,5.93
2018-04-26T00:15:54.089Z,5.57
2018-04-26T00:18:22.401Z,4.80
2018-04-26T00:20:50.786Z,4.50
2018-04-26T00:23:19.314Z,4.63
2018-04-26T00:25:47.492Z,4.37
2018-04-26T00:28:15.794Z,4.23
2018-04-26T00:30:44.143Z,3.97
2018-04-26T00:33:12.429Z,4.00
2018-04-26T00:35:40.702Z,4.30
2018-04-26T00:38:08.863Z,3.70
2018-04-26T00:40:37.985Z,3.00
2018-04-26T00:43:06.342Z,3.03
2018-04-26T00:45:35.546Z,2.63
2018-04-26T00:48:03.732Z,3.03
2018-04-26T00:50:32.652Z,2.50
2018-04-26T00:53:01.106Z,2.60
2018-04-26T00:55:29.226Z,2.37
2018-04-26T00:57:57.458Z,2.30
2018-04-26T01:00:25.751Z,2.87
2018-04-26T01:02:54.213Z,2.57
2018-04-26T01:05:22.276Z,2.80
2018-04-26T01:07:50.453Z,2.50
2018-04-26T01:10:18.840Z,2.50
2018-04-26T01:12:48.243Z,2.60
2018-04-26T01:15:16.418Z,2.20
2018-04-26T01:17:45.727Z,2.00
2018-04-26T01:20:14.210Z,2.20
2018-04-26T01:22:42.540Z,2.40
2018-04-26T01:25:10.859Z,2.13
2018-04-26T01:27:39.343Z,2.10
2018-04-26T01:30:07.741Z,1.93
2018-04-26T01:32:36.001Z,1.93
2018-04-26T01:35:04.052Z,1.90
2018-04-26T01:37:45.407Z,2.23
2018-04-26T01:40:13.525Z,1.70
2018-04-26T01:42:41.738Z,2.20
2018-04-26T01:45:10.659Z,1.70
2018-04-26T01:47:38.880Z,1.70
2018-04-26T01:50:08.146Z,1.67
2018-04-26T01:52:36.598Z,1.90
2018-04-26T01:55:04.873Z,2.10
2018-04-26T01:57:33.504Z,1.70
2018-04-26T02:00:01.912Z,1.80
2018-04-26T02:02:30.110Z,1.80
2018-04-26T02:04:58.500Z,2.23
2018-04-26T02:07:26.920Z,2.43
2018-04-26T02:09:55.266Z,1.73
2018-04-26T02:12:23.610Z,1.70
2018-04-26T02:14:52.058Z,1.83
2018-04-26T02:17:20.617Z,3.23
2018-04-26T02:19:49.018Z,2.20
2018-04-26T02:22:17.457Z,2.60
2018-04-26T02:24:45.612Z,2.27
2018-04-26T02:27:13.976Z,2.50
2018-04-26T02:29:42.184Z,2.10
2018-04-26T02:32:10.569Z,1.90
2018-04-26T02:34:38.755Z,2.10
2018-04-26T02:37:07.668Z,2.10
2018-04-26T02:39:35.835Z,2.00
2018-04-26T02:42:05.438Z,2.40
2018-04-26T02:44:33.735Z,2.40
2018-04-26T02:47:02.772Z,2.47
2018-04-26T02:49:31.187Z,2.13
2018-04-26T02:51:59.503Z,1.80
2018-04-26T02:54:28.110Z,2.00
2018-04-26T02:56:56.563Z,1.93
2018-04-26T02:59:24.781Z,1.80
2018-04-26T03:01:53.348Z,1.93
2018-04-26T03:04:21.933Z,1.70
2018-04-26T03:06:50.430Z,2.07
2018-04-26T03:09:19.578Z,1.90
2018-04-26T03:11:47.948Z,1.83
2018-04-26T03:14:18.381Z,1.90
2018-04-26T03:16:46.642Z,2.00
2018-04-26T03:19:14.794Z,2.00
2018-04-26T03:21:44.634Z,2.00
2018-04-26T03:24:13.023Z,1.90
2018-04-26T03:26:41.242Z,1.93
2018-04-26T03:29:10.371Z,1.90
2018-04-26T03:31:40.276Z,1.70
2018-04-26T03:34:09.718Z,2.30
2018-04-26T03:36:38.453Z,2.00
2018-04-26T03:39:08.161Z,2.00
2018-04-26T03:41:36.696Z,2.20
2018-04-26T03:44:05.125Z,2.00
2018-04-26T03:46:33.611Z,2.20
2018-04-26T03:49:01.867Z,1.80
2018-04-26T03:51:30.229Z,1.70
2018-04-26T03:53:58.723Z,1.83
2018-04-26T03:56:27.216Z,1.97
2018-04-26T03:58:55.639Z,1.57
2018-04-26T04:01:34.762Z,1.70
2018-04-26T04:04:14.043Z,1.73
2018-04-26T04:06:42.277Z,1.50
2018-04-26T04:09:10.869Z,1.70
2018-04-26T04:11:39.618Z,1.70
2018-04-26T04:14:09.296Z,1.50
2018-04-26T04:16:37.624Z,1.50
2018-04-26T04:19:06.257Z,1.57
2018-04-26T04:21:34.534Z,1.57
2018-04-26T04:24:03.202Z,1.53
2018-04-26T04:26:31.599Z,2.03
2018-04-26T04:29:00.271Z,1.37
2018-04-26T04:31:28.769Z,1.77
2018-04-26T04:33:57.137Z,1.50
2018-04-26T04:36:25.940Z,1.30
2018-04-26T04:38:55.207Z,1.30
2018-04-26T04:41:23.402Z,1.70
2018-04-26T04:43:52.093Z,1.53
2018-04-26T04:46:20.555Z,1.20
2018-04-26T04:48:48.864Z,2.43
2018-04-26T04:51:17.185Z,1.30
2018-04-26T04:53:45.553Z,1.73
2018-04-26T04:56:14.601Z,1.60
2018-04-26T04:58:42.755Z,1.40
2018-04-26T05:01:10.732Z,1.53
2018-04-26T05:03:39.466Z,1.23
2018-04-26T05:06:07.663Z,1.60
2018-04-26T05:08:36.182Z,1.57
2018-04-26T05:11:05.799Z,1.40
2018-04-26T05:13:34.228Z,1.77
2018-04-26T05:16:02.344Z,1.97
2018-04-26T05:18:30.812Z,1.40
2018-04-26T05:20:59.205Z,1.50
2018-04-26T05:23:27.903Z,1.70
2018-04-26T05:25:56.398Z,1.60
2018-04-26T05:28:25.356Z,1.80
2018-04-26T05:30:53.833Z,1.40
2018-04-26T05:33:22.651Z,1.53
2018-04-26T05:35:51.228Z,1.53
2018-04-26T05:38:21.557Z,3.73
2018-04-26T05:40:49.708Z,1.67
2018-04-26T05:43:19.186Z,1.70
2018-04-26T05:45:47.382Z,1.63
2018-04-26T05:48:15.839Z,1.83
2018-04-26T05:50:44.223Z,1.73
2018-04-26T05:53:12.644Z,1.70
2018-04-26T05:55:42.154Z,1.90
2018-04-26T05:58:11.054Z,1.70
2018-04-26T06:00:40.028Z,2.40
2018-04-26T06:03:09.460Z,2.53
2018-04-26T06:05:37.777Z,1.70
2018-04-26T06:08:07.168Z,1.90
2018-04-26T06:10:35.424Z,2.60
2018-04-26T06:13:03.620Z,3.00
2018-04-26T06:15:31.912Z,1.77
2018-04-26T06:18:00.391Z,1.67
2018-04-26T06:20:28.603Z,1.67
2018-04-26T06:22:57.587Z,1.90
2018-04-26T06:25:26.505Z,1.60
2018-04-26T06:27:54.573Z,1.90
2018-04-26T06:30:23.092Z,2.10
2018-04-26T06:32:51.263Z,2.10
2018-04-26T06:35:21.083Z,2.03
2018-04-26T06:37:49.703Z,1.60
2018-04-26T06:40:19.576Z,1.70
2018-04-26T06:42:47.849Z,1.93
2018-04-26T06:45:16.533Z,1.73
2018-04-26T06:47:46.449Z,1.80
2018-04-26T06:50:15.048Z,1.60
2018-04-26T06:52:43.361Z,1.80
2018-04-26T06:55:11.659Z,1.77
2018-04-26T06:57:40.367Z,1.50
2018-04-26T07:00:09.759Z,1.70
2018-04-26T07:02:38.773Z,2.30
2018-04-26T07:05:07.297Z,1.70
2018-04-26T07:07:35.823Z,2.13
2018-04-26T07:10:04.176Z,1.53
2018-04-26T07:12:32.519Z,1.90
2018-04-26T07:15:01.381Z,1.90
2018-04-26T07:17:29.864Z,1.90
2018-04-26T07:19:58.159Z,1.77
2018-04-26T07:22:26.961Z,1.60
2018-04-26T07:24:55.247Z,1.90
2018-04-26T07:27:23.497Z,1.50
2018-04-26T07:29:51.765Z,1.50
2018-04-26T07:32:20.206Z,1.50
2018-04-26T07:34:48.589Z,1.60
2018-04-26T07:37:16.905Z,1.80
2018-04-26T07:39:46.125Z,1.60
2018-04-26T07:42:14.173Z,1.70
2018-04-26T07:44:42.321Z,1.90
2018-04-26T07:47:11.841Z,1.40
2018-04-26T07:49:40.087Z,1.30
2018-04-26T07:52:08.486Z,1.67
2018-04-26T07:54:36.768Z,1.80
2018-04-26T07:57:05.201Z,2.27
2018-04-26T07:59:33.565Z,2.03
2018-04-26T08:02:01.680Z,1.30
2018-04-26T08:04:30.609Z,1.60
2018-04-26T08:06:58.702Z,1.83
2018-04-26T08:09:27.156Z,1.40
2018-04-26T08:11:55.282Z,1.97
2018-04-26T08:14:23.432Z,1.27
2018-04-26T08:16:51.612Z,1.60
2018-04-26T08:19:19.959Z,1.73
2018-04-26T08:21:48.309Z,1.67
2018-04-26T08:24:16.643Z,1.60
2018-04-26T08:26:44.666Z,1.80
2018-04-26T08:29:13.111Z,1.87
2018-04-26T08:31:41.470Z,1.80
2018-04-26T08:34:09.644Z,1.90
2018-04-26T08:36:37.829Z,1.80
2018-04-26T08:39:06.639Z,1.77
2018-04-26T08:41:34.794Z,2.03
2018-04-26T08:44:02.950Z,2.00
2018-04-26T08:46:31.085Z,2.07
2018-04-26T08:48:59.996Z,1.90
2018-04-26T08:51:28.347Z,2.37
2018-04-26T08:53:56.392Z,1.70
2018-04-26T08:56:24.763Z,1.87
2018-04-26T08:58:53.901Z,1.70
2018-04-26T09:01:22.076Z,1.70
2018-04-26T09:03:51.269Z,1.40
2018-04-26T09:06:20.541Z,1.57
2018-04-26T09:08:49.001Z,1.47
2018-04-26T09:11:17.269Z,1.60
2018-04-26T09:13:45.907Z,1.70
2018-04-26T09:16:14.282Z,1.60
2018-04-26T09:18:43.299Z,1.60
2018-04-26T09:21:11.684Z,1.50
2018-04-26T09:23:40.090Z,1.33
2018-04-26T09:26:08.463Z,1.10
2018-04-26T09:28:36.841Z,0.97
2018-04-26T09:31:05.225Z,1.60
2018-04-26T09:33:33.661Z,1.50
2018-04-26T09:36:03.151Z,1.73
2018-04-26T09:38:31.813Z,2.27
2018-04-26T09:41:00.759Z,1.20
2018-04-26T09:43:29.119Z,1.20
2018-04-26T09:45:58.070Z,1.10
2018-04-26T09:48:26.902Z,1.40
2018-04-26T09:50:55.289Z,1.50
2018-04-26T09:53:23.867Z,1.33
2018-04-26T09:55:52.992Z,1.80
2018-04-26T09:58:21.162Z,7.63
2018-04-26T10:00:53.376Z,1.70
2018-04-26T10:03:21.926Z,2.10
2018-04-26T10:05:54.713Z,1.90
2018-04-26T10:08:22.947Z,1.90
2018-04-26T10:10:52.282Z,1.60
2018-04-26T10:13:21.346Z,1.70
2018-04-26T10:15:50.809Z,1.80
2018-04-26T10:18:18.912Z,1.73
2018-04-26T10:20:47.130Z,1.63
2018-04-26T10:23:16.234Z,2.10
2018-04-26T10:25:45.278Z,2.37
2018-04-26T10:28:13.650Z,1.50
2018-04-26T10:30:44.451Z,1.80
2018-04-26T10:33:12.795Z,1.80
2018-04-26T10:35:41.177Z,1.50
2018-04-26T10:38:10.097Z,1.70
2018-04-26T10:40:38.913Z,1.80
2018-04-26T10:43:07.767Z,1.93
2018-04-26T10:45:35.990Z,2.03
2018-04-26T10:48:04.417Z,1.93
2018-04-26T10:50:32.433Z,1.67
2018-04-26T10:53:01.119Z,1.43
2018-04-26T10:55:29.239Z,1.53
2018-04-26T10:57:57.903Z,1.50
2018-04-26T11:00:26.401Z,1.33
2018-04-26T11:02:54.807Z,2.13
2018-04-26T11:05:23.124Z,1.50
2018-04-26T11:07:51.343Z,1.60
2018-04-26T11:10:19.544Z,1.83
2018-04-26T11:12:48.792Z,1.50
2018-04-26T11:15:16.860Z,1.50
2018-04-26T11:17:46.000Z,1.90
2018-04-26T11:20:15.064Z,1.70
2018-04-26T11:22:43.280Z,1.40
2018-04-26T11:25:11.656Z,1.90
2018-04-26T11:27:40.701Z,1.47
2018-04-26T11:30:08.775Z,1.70
2018-04-26T11:32:37.194Z,1.60
2018-04-26T11:35:06.397Z,1.83
2018-04-26T11:37:35.728Z,1.97
2018-04-26T11:40:04.253Z,1.80
2018-04-26T11:42:32.416Z,1.67
2018-04-26T11:45:00.845Z,1.63
2018-04-26T11:47:29.452Z,1.60
2018-04-26T11:49:58.675Z,1.70
2018-04-26T11:52:26.874Z,1.90
2018-04-26T11:54:55.058Z,1.90
2018-04-26T11:57:24.870Z,1.77
2018-04-26T11:59:53.919Z,1.70
2018-04-26T12:02:22.033Z,1.70
2018-04-26T12:04:50.189Z,1.80
2018-04-26T12:07:19.497Z,1.60
2018-04-26T12:09:48.456Z,1.70
2018-04-26T12:12:16.707Z,1.87
2018-04-26T12:14:44.832Z,1.50
2018-04-26T12:17:13.275Z,1.50
2018-04-26T12:19:42.490Z,1.50
2018-04-26T12:22:11.113Z,1.17
2018-04-26T12:24:39.948Z,1.50
2018-04-26T12:27:08.440Z,1.80
2018-04-26T12:29:36.610Z,1.70
2018-04-26T12:32:04.817Z,1.70
2018-04-26T12:34:33.912Z,2.13
2018-04-26T12:37:01.980Z,1.47
2018-04-26T12:39:31.551Z,1.47
2018-04-26T12:42:00.295Z,2.10
2018-04-26T12:44:28.581Z,1.80
2018-04-26T12:47:00.321Z,1.80
2018-04-26T12:49:28.616Z,2.00
2018-04-26T12:51:58.424Z,1.70
2018-04-26T12:54:27.141Z,2.13
2018-04-26T12:56:55.385Z,1.80
2018-04-26T12:59:23.764Z,1.70
2018-04-26T13:01:52.586Z,1.90
2018-04-26T13:04:21.168Z,1.63
2018-04-26T13:06:49.476Z,1.40
2018-04-26T13:09:17.759Z,1.90
2018-04-26T13:11:47.337Z,1.47
2018-04-26T13:14:15.599Z,1.73
2018-04-26T13:16:44.680Z,1.50
2018-04-26T13:19:13.489Z,2.20
2018-04-26T13:21:42.349Z,1.80
2018-04-26T13:24:10.822Z,1.60
2018-04-26T13:26:39.165Z,1.90
2018-04-26T13:29:07.684Z,1.63
2018-04-26T13:31:36.442Z,1.40
2018-04-26T13:34:05.585Z,1.40
2018-04-26T13:36:33.670Z,1.50
2018-04-26T13:39:01.958Z,1.30
2018-04-26T13:41:30.132Z,1.40
2018-04-26T13:43:58.388Z,1.20
2018-04-26T13:46:26.904Z,1.40
2018-04-26T13:48:56.308Z,1.80
2018-04-26T13:51:24.903Z,1.10
2018-04-26T13:53:53.711Z,1.50
2018-04-26T13:56:21.832Z,1.50
2018-04-26T13:58:50.195Z,1.50
2018-04-26T14:01:18.924Z,1.20
2018-04-26T14:03:47.763Z,1.30
2018-04-26T14:06:16.188Z,1.60
2018-04-26T14:08:45.613Z,1.47
2018-04-26T14:11:17.661Z,1.30
2018-04-26T14:13:47.160Z,1.37
2018-04-26T14:16:15.604Z,1.40
2018-04-26T14:18:43.754Z,1.30
2018-04-26T14:21:12.419Z,1.77
2018-04-26T14:23:40.636Z,1.80
2018-04-26T14:26:08.763Z,1.30
2018-04-26T14:28:38.018Z,1.57
2018-04-26T14:31:08.133Z,1.20
2018-04-26T14:33:37.267Z,1.30
2018-04-26T14:36:06.512Z,1.33
2018-04-26T14:38:35.802Z,1.40
2018-04-26T14:41:05.459Z,1.60
2018-04-26T14:43:33.589Z,2.97
2018-04-26T14:46:01.968Z,1.47
2018-04-26T14:48:30.280Z,1.43
2018-04-26T14:50:58.955Z,1.47
2018-04-26T14:53:27.134Z,1.10
2018-04-26T14:55:56.353Z,1.37
2018-04-26T14:58:24.798Z,1.27
2018-04-26T15:00:53.032Z,1.13
2018-04-26T15:03:21.498Z,1.40
2018-04-26T15:05:49.747Z,1.63
2018-04-26T15:08:18.833Z,1.80
2018-04-26T15:10:46.902Z,1.30
2018-04-26T15:13:15.299Z,1.60
2018-04-26T15:15:44.186Z,1.23
2018-04-26T15:18:12.290Z,2.87
2018-04-26T15:20:41.476Z,1.30
2018-04-26T15:23:10.463Z,1.53
2018-04-26T15:25:41.402Z,1.40
2018-04-26T15:28:10.764Z,1.97
2018-04-26T15:30:39.368Z,2.33
2018-04-26T15:33:08.453Z,1.73
2018-04-26T15:35:36.776Z,1.17
2018-04-26T15:38:05.734Z,1.67
2018-04-26T15:40:34.961Z,1.80
2018-04-26T15:43:03.233Z,2.07
2018-04-26T15:45:31.666Z,2.87
2018-04-26T15:48:00.114Z,1.97
2018-04-26T15:50:29.371Z,2.00
2018-04-26T15:55:12.480Z,4.67
2018-04-26T15:57:55.926Z,1.40
2018-04-26T16:01:34.005Z,1.47
2018-04-26T16:04:13.156Z,1.60
2018-04-26T16:07:16.857Z,1.60
2018-04-26T16:09:49.932Z,2.47
2018-04-26T16:14:41.253Z,3.57
2018-04-26T16:19:25.197Z,2.47
2018-04-26T16:24:11.524Z,4.70
2018-04-26T16:26:56.074Z,2.43
2018-04-26T16:29:40.015Z,3.67
2018-04-26T16:32:23.753Z,1.40
2018-04-26T16:36:04.528Z,2.70
2018-04-26T16:39:07.963Z,3.47
2018-04-26T16:41:37.030Z,2.17
2018-04-26T16:44:05.620Z,3.60
2018-04-26T16:46:34.861Z,1.70
2018-04-26T16:49:04.362Z,1.80
2018-04-26T16:51:33.328Z,1.60
2018-04-26T16:54:01.897Z,1.97
2018-04-26T16:56:30.361Z,1.67
2018-04-26T16:58:58.657Z,3.00
2018-04-26T17:01:27.271Z,1.37
2018-04-26T17:03:56.183Z,1.77
2018-04-26T17:06:24.774Z,2.70
2018-04-26T17:08:53.683Z,2.13
2018-04-26T17:11:22.211Z,1.70
2018-04-26T17:13:50.510Z,3.07
2018-04-26T17:16:19.368Z,1.80
2018-04-26T17:18:48.244Z,1.60
2018-04-26T17:21:17.527Z,1.70
2018-04-26T17:23:45.848Z,1.93
2018-04-26T17:26:16.143Z,3.30
2018-04-26T17:28:45.280Z,1.30
2018-04-26T17:31:13.520Z,1.30
2018-04-26T17:33:42.072Z,1.90
2018-04-26T17:36:10.633Z,2.27
2018-04-26T17:38:39.907Z,3.40
2018-04-26T17:41:09.243Z,2.20
2018-04-26T17:43:37.744Z,1.97
2018-04-26T17:46:09.497Z,2.33
2018-04-26T17:48:38.754Z,3.17
2018-04-26T17:51:07.257Z,2.63
2018-04-26T17:53:36.405Z,3.10
2018-04-26T17:56:04.620Z,2.47
2018-04-26T17:58:33.610Z,2.13
2018-04-26T18:01:01.773Z,1.73
2018-04-26T18:03:30.417Z,2.00
2018-04-26T18:05:59.279Z,2.50
2018-04-26T18:08:27.713Z,2.13
2018-04-26T18:10:56.711Z,1.93
2018-04-26T18:13:25.767Z,4.73
2018-04-26T18:15:53.784Z,1.70
2018-04-26T18:18:22.092Z,1.63
2018-04-26T18:20:50.583Z,2.03
2018-04-26T18:23:19.392Z,1.90
2018-04-26T18:25:48.365Z,1.97
2018-04-26T18:28:16.767Z,2.30
2018-04-26T18:30:46.301Z,2.33
2018-04-26T18:33:14.656Z,2.90
2018-04-26T18:35:43.831Z,1.90
2018-04-26T18:38:12.412Z,2.03
2018-04-26T18:40:40.752Z,2.20
2018-04-26T18:43:09.863Z,1.93
2018-04-26T18:45:37.455Z,1.70
2018-04-26T18:48:05.520Z,2.20
2018-04-26T18:50:33.801Z,2.20
2018-04-26T18:53:02.074Z,2.63
2018-04-26T18:55:30.400Z,2.77
2018-04-26T18:58:00.728Z,2.07
2018-04-26T19:00:28.977Z,2.10
2018-04-26T19:02:57.343Z,2.27
2018-04-26T19:05:26.336Z,2.50
2018-04-26T19:07:56.737Z,2.03
2018-04-26T19:10:25.340Z,1.93
2018-04-26T19:12:53.612Z,2.27
2018-04-26T19:15:23.346Z,2.20
2018-04-26T19:17:51.528Z,1.67
2018-04-26T19:20:19.760Z,1.57
2018-04-26T19:22:48.939Z,2.10
2018-04-26T19:25:18.280Z,2.17
2018-04-26T19:27:47.598Z,2.23
2018-04-26T19:30:17.425Z,2.03
2018-04-26T19:32:46.669Z,2.20
2018-04-26T19:35:15.345Z,1.83
2018-04-26T19:37:43.531Z,1.97
2018-04-26T19:40:13.158Z,1.80
2018-04-26T19:42:41.392Z,1.90
2018-04-26T19:45:09.432Z,1.87
2018-04-26T19:47:37.563Z,2.00
2018-04-26T19:50:06.833Z,1.73
2018-04-26T19:52:35.142Z,2.67
2018-04-26T19:55:03.609Z,2.10
2018-04-26T19:57:32.097Z,1.83
2018-04-26T20:00:00.248Z,2.10
2018-04-26T20:02:29.567Z,2.13
2018-04-26T20:04:57.832Z,3.53
2018-04-26T20:07:26.256Z,2.30
2018-04-26T20:09:55.314Z,2.10
2018-04-26T20:12:23.580Z,2.00
2018-04-26T20:14:51.961Z,1.93
2018-04-26T20:17:20.927Z,2.17
2018-04-26T20:19:49.956Z,2.23
2018-04-26T20:22:18.253Z,2.17
2018-04-26T20:24:47.366Z,1.90
2018-04-26T20:27:15.606Z,1.63
2018-04-26T20:29:43.999Z,1.63
2018-04-26T20:32:12.784Z,2.10
2018-04-26T20:34:42.926Z,4.70
2018-04-26T20:37:11.008Z,2.90
2018-04-26T20:39:39.560Z,2.20
2018-04-26T20:42:08.621Z,2.00
2018-04-26T20:44:47.819Z,2.40
2018-04-26T20:47:16.203Z,2.30
2018-04-26T20:49:44.697Z,2.27
2018-04-26T20:52:12.783Z,2.17
2018-04-26T20:54:41.095Z,2.60
2018-04-26T20:57:09.469Z,2.30
2018-04-26T20:59:37.949Z,2.70
2018-04-26T21:02:06.597Z,2.53
2018-04-26T21:04:35.115Z,2.70
2018-04-26T21:07:03.622Z,3.13
2018-04-26T21:09:31.656Z,2.17
2018-04-26T21:11:59.812Z,2.43
2018-04-26T21:14:29.192Z,2.33
2018-04-26T21:16:57.209Z,2.30
2018-04-26T21:19:26.208Z,2.47
2018-04-26T21:21:55.639Z,2.53
2018-04-26T21:24:24.110Z,2.43
2018-04-26T21:26:53.394Z,2.13
2018-04-26T21:29:22.093Z,2.70
2018-04-26T21:31:51.229Z,2.33
2018-04-26T21:34:19.401Z,2.67
2018-04-26T21:36:47.430Z,2.30
2018-04-26T21:39:16.046Z,2.87
2018-04-26T21:41:44.188Z,2.50
2018-04-26T21:44:13.692Z,2.40
2018-04-26T21:46:42.321Z,2.47
2018-04-26T21:49:10.959Z,2.50
2018-04-26T21:51:45.750Z,2.57
2018-04-26T21:54:19.655Z,2.70
2018-04-26T21:56:54.092Z,2.73
2018-04-26T21:59:28.676Z,2.50
2018-04-26T22:02:03.136Z,2.40
2018-04-26T22:04:32.158Z,2.43
2018-04-26T22:07:01.185Z,3.03
2018-04-26T22:09:29.462Z,3.10
2018-04-26T22:11:58.556Z,3.00
2018-04-26T22:14:26.947Z,2.67
2018-04-26T22:16:55.229Z,2.40
2018-04-26T22:19:23.448Z,2.90
2018-04-26T22:21:51.625Z,2.70
2018-04-26T22:24:19.920Z,3.10
2018-04-26T22:26:48.402Z,3.80
2018-04-26T22:29:16.905Z,2.77
2018-04-26T22:31:46.104Z,2.80
2018-04-26T22:34:14.909Z,2.37
2018-04-26T22:36:43.081Z,2.63
2018-04-26T22:39:12.341Z,2.73
2018-04-26T22:41:40.557Z,2.63
2018-04-26T22:44:09.095Z,2.33
2018-04-26T22:46:37.385Z,2.03
2018-04-26T22:49:05.552Z,2.30
2018-04-26T22:51:35.644Z,2.40
2018-04-26T22:54:04.891Z,1.93
2018-04-26T22:56:32.935Z,2.00
2018-04-26T22:59:01.044Z,2.73
2018-04-26T23:01:30.351Z,2.73
2018-04-26T23:03:59.400Z,2.13
2018-04-26T23:06:27.980Z,2.77
2018-04-26T23:08:56.257Z,2.40
2018-04-26T23:11:25.209Z,2.33
2018-04-26T23:13:54.145Z,2.33
2018-04-26T23:16:22.744Z,2.27
2018-04-26T23:18:51.824Z,2.77
2018-04-26T23:21:19.980Z,2.77
2018-04-26T23:23:48.332Z,2.90
2018-04-26T23:26:17.529Z,3.00
2018-04-26T23:28:46.050Z,2.60
2018-04-26T23:31:14.393Z,2.77
2018-04-26T23:33:42.844Z,2.60
2018-04-26T23:36:11.209Z,2.50
2018-04-26T23:38:40.272Z,2.87
2018-04-26T23:41:09.844Z,2.63
2018-04-26T23:43:39.112Z,2.47
2018-04-26T23:46:09.162Z,2.70
2018-04-26T23:48:37.492Z,2.43
2018-04-26T23:51:05.932Z,2.47
2018-04-26T23:53:34.140Z,2.50
2018-04-26T23:56:02.496Z,2.23
2018-04-26T23:58:32.687Z,2.47
